createdAt,value
2019-02-21T00:00:29.022Z,1020.22
2019-02-21T00:01:29.029Z,1020.22
2019-02-21T00:02:29.016Z,1020.23
2019-02-21T00:03:28.992Z,1020.23
2019-02-21T00:04:28.981Z,1020.22
2019-02-21T00:05:29.872Z,1020.16
2019-02-21T00:06:28.959Z,1020.21
2019-02-21T00:07:28.954Z,1020.21
2019-02-21T00:08:28.936Z,1020.13
2019-02-21T00:09:28.926Z,1020.19
2019-02-21T00:10:28.916Z,1020.21
2019-02-21T00:11:28.903Z,1020.21
2019-02-21T00:12:28.903Z,1020.22
2019-02-21T00:13:28.884Z,1020.22
2019-02-21T00:14:28.876Z,1020.13
2019-02-21T00:15:28.856Z,1020.12
2019-02-21T00:16:28.851Z,1020.16
2019-02-21T00:17:28.899Z,1020.16
2019-02-21T00:18:28.828Z,1020.16
2019-02-21T00:19:28.817Z,1020.21
2019-02-21T00:20:28.803Z,1020.19
2019-02-21T00:21:28.795Z,1020.24
2019-02-21T00:22:28.894Z,1020.20
2019-02-21T00:23:28.771Z,1020.14
2019-02-21T00:24:28.757Z,1020.19
2019-02-21T00:25:28.747Z,1020.19
2019-02-21T00:26:28.739Z,1020.19
2019-02-21T00:27:28.749Z,1020.15
2019-02-21T00:28:28.716Z,1020.23
2019-02-21T00:29:29.366Z,1020.19
2019-02-21T00:30:35.325Z,1020.23
2019-02-21T00:31:28.687Z,1020.23
2019-02-21T00:32:28.682Z,1020.21
2019-02-21T00:33:28.675Z,1020.21
2019-02-21T00:34:29.365Z,1020.13
2019-02-21T00:35:28.635Z,1020.14
2019-02-21T00:36:28.625Z,1020.15
2019-02-21T00:37:28.629Z,1020.12
2019-02-21T00:38:28.622Z,1020.12
2019-02-21T00:39:28.593Z,1020.15
2019-02-21T00:40:28.581Z,1020.17
2019-02-21T00:41:28.573Z,1020.04
2019-02-21T00:42:28.577Z,1020.12
2019-02-21T00:43:28.590Z,1020.08
2019-02-21T00:44:28.537Z,1020.18
2019-02-21T00:45:29.382Z,1020.08
2019-02-21T00:46:29.367Z,1020.09
2019-02-21T00:47:28.509Z,1020.16
2019-02-21T00:48:28.898Z,1020.19
2019-02-21T00:49:28.490Z,1020.14
2019-02-21T00:50:28.472Z,1020.21
2019-02-21T00:51:29.368Z,1020.15
2019-02-21T00:52:28.450Z,1020.14
2019-02-21T00:53:28.464Z,1020.19
2019-02-21T00:54:28.426Z,1020.18
2019-02-21T00:55:29.372Z,1020.20
2019-02-21T00:56:28.428Z,1020.19
2019-02-21T00:57:28.398Z,1020.18
2019-02-21T00:58:28.410Z,1020.15
2019-02-21T00:59:28.375Z,1020.13
2019-02-21T01:00:28.373Z,1020.26
2019-02-21T01:01:28.351Z,1020.20
2019-02-21T01:02:28.343Z,1020.23
2019-02-21T01:03:28.354Z,1020.41
2019-02-21T01:04:28.870Z,1020.29
2019-02-21T01:05:28.312Z,1020.30
2019-02-21T01:06:28.874Z,1020.32
2019-02-21T01:07:28.285Z,1020.32
2019-02-21T01:08:28.380Z,1020.33
2019-02-21T01:09:28.267Z,1020.28
2019-02-21T01:10:28.253Z,1020.35
2019-02-21T01:11:28.242Z,1020.29
2019-02-21T01:12:28.238Z,1020.34
2019-02-21T01:13:28.251Z,1020.32
2019-02-21T01:14:28.209Z,1020.39
2019-02-21T01:15:28.207Z,1020.41
2019-02-21T01:16:28.187Z,1020.38
2019-02-21T01:17:28.177Z,1020.41
2019-02-21T01:18:28.912Z,1020.44
2019-02-21T01:19:28.386Z,1020.39
2019-02-21T01:20:28.874Z,1020.50
2019-02-21T01:21:28.133Z,1020.52
2019-02-21T01:22:28.875Z,1020.51
2019-02-21T01:23:28.198Z,1020.52
2019-02-21T01:24:28.126Z,1020.54
2019-02-21T01:25:28.872Z,1020.52
2019-02-21T01:26:28.075Z,1020.53
2019-02-21T01:27:28.066Z,1020.52
2019-02-21T01:28:28.056Z,1020.56
2019-02-21T01:29:28.064Z,1020.60
2019-02-21T01:30:28.873Z,1020.52
2019-02-21T01:31:28.019Z,1020.57
2019-02-21T01:32:28.013Z,1020.49
2019-02-21T01:33:28.010Z,1020.50
2019-02-21T01:34:27.998Z,1020.52
2019-02-21T01:35:28.872Z,1020.51
2019-02-21T01:36:27.965Z,1020.51
2019-02-21T01:37:27.956Z,1020.41
2019-02-21T01:38:27.956Z,1020.50
2019-02-21T01:39:27.947Z,1020.48
2019-02-21T01:40:27.932Z,1020.43
2019-02-21T01:41:27.911Z,1020.44
2019-02-21T01:42:27.901Z,1020.52
2019-02-21T01:43:27.898Z,1020.54
2019-02-21T01:44:27.893Z,1020.50
2019-02-21T01:45:27.869Z,1020.50
2019-02-21T01:46:27.858Z,1020.58
2019-02-21T01:47:27.845Z,1020.54
2019-02-21T01:48:29.625Z,1020.55
2019-02-21T01:49:27.838Z,1020.55
2019-02-21T01:50:27.816Z,1020.51
2019-02-21T01:51:27.881Z,1020.55
2019-02-21T01:52:27.789Z,1020.52
2019-02-21T01:53:28.379Z,1020.57
2019-02-21T01:54:27.901Z,1020.63
2019-02-21T01:55:27.758Z,1020.63
2019-02-21T01:56:27.744Z,1020.61
2019-02-21T01:57:27.736Z,1020.64
2019-02-21T01:58:27.740Z,1020.61
2019-02-21T01:59:27.722Z,1020.62
2019-02-21T02:00:28.384Z,1020.66
2019-02-21T02:01:27.693Z,1020.71
2019-02-21T02:02:27.679Z,1020.68
2019-02-21T02:03:27.685Z,1020.69
2019-02-21T02:04:27.885Z,1020.70
2019-02-21T02:05:27.645Z,1020.72
2019-02-21T02:06:27.636Z,1020.69
2019-02-21T02:07:27.630Z,1020.74
2019-02-21T02:08:27.631Z,1020.72
2019-02-21T02:09:27.889Z,1020.73
2019-02-21T02:10:27.590Z,1020.72
2019-02-21T02:11:27.579Z,1020.76
2019-02-21T02:12:27.569Z,1020.76
2019-02-21T02:13:27.574Z,1020.77
2019-02-21T02:14:27.544Z,1020.74
2019-02-21T02:15:27.886Z,1020.74
2019-02-21T02:16:27.528Z,1020.73
2019-02-21T02:17:27.513Z,1020.74
2019-02-21T02:18:27.507Z,1020.70
2019-02-21T02:19:27.492Z,1020.76
2019-02-21T02:20:27.493Z,1020.81
2019-02-21T02:21:27.465Z,1020.78
2019-02-21T02:22:28.375Z,1020.80
2019-02-21T02:23:28.372Z,1020.75
2019-02-21T02:24:27.442Z,1020.79
2019-02-21T02:25:27.452Z,1020.77
2019-02-21T02:26:27.422Z,1020.74
2019-02-21T02:27:28.376Z,1020.77
2019-02-21T02:28:27.390Z,1020.72
2019-02-21T02:29:28.377Z,1020.74
2019-02-21T02:30:27.388Z,1020.72
2019-02-21T02:31:27.886Z,1020.75
2019-02-21T02:32:27.877Z,1020.80
2019-02-21T02:33:27.335Z,1020.69
2019-02-21T02:34:27.323Z,1020.74
2019-02-21T02:35:27.331Z,1020.75
2019-02-21T02:36:27.308Z,1020.78
2019-02-21T02:37:27.296Z,1020.74
2019-02-21T02:38:27.880Z,1020.74
2019-02-21T02:39:27.899Z,1020.76
2019-02-21T02:40:27.385Z,1020.77
2019-02-21T02:41:27.876Z,1020.72
2019-02-21T02:42:27.242Z,1020.83
2019-02-21T02:43:27.237Z,1020.73
2019-02-21T02:44:27.881Z,1020.79
2019-02-21T02:45:27.258Z,1020.82
2019-02-21T02:46:27.194Z,1020.82
2019-02-21T02:47:27.183Z,1020.83
2019-02-21T02:48:27.168Z,1020.84
2019-02-21T02:49:27.164Z,1020.85
2019-02-21T02:50:27.157Z,1020.88
2019-02-21T02:51:27.140Z,1020.87
2019-02-21T02:52:27.129Z,1020.87
2019-02-21T02:53:27.128Z,1020.93
2019-02-21T02:54:27.107Z,1020.86
2019-02-21T02:55:27.124Z,1020.87
2019-02-21T02:56:27.878Z,1020.81
2019-02-21T02:57:27.084Z,1020.82
2019-02-21T02:58:27.060Z,1020.80
2019-02-21T02:59:40.014Z,1020.86
2019-02-21T03:00:27.090Z,1020.84
2019-02-21T03:01:34.822Z,1020.83
2019-02-21T03:02:27.012Z,1020.82
2019-02-21T03:03:27.004Z,1020.80
2019-02-21T03:04:28.209Z,1020.87
2019-02-21T03:05:26.985Z,1020.78
2019-02-21T03:06:27.390Z,1020.78
2019-02-21T03:07:27.882Z,1020.81
2019-02-21T03:08:26.952Z,1020.83
2019-02-21T03:09:26.937Z,1020.67
2019-02-21T03:10:27.882Z,1020.76
2019-02-21T03:11:26.944Z,1020.80
2019-02-21T03:12:26.905Z,1020.79
2019-02-21T03:13:27.879Z,1020.80
2019-02-21T03:14:26.896Z,1020.83
2019-02-21T03:15:26.873Z,1020.80
2019-02-21T03:16:26.872Z,1020.83
2019-02-21T03:17:26.855Z,1020.86
2019-02-21T03:18:27.385Z,1020.75
2019-02-21T03:19:26.841Z,1020.81
2019-02-21T03:20:26.817Z,1020.82
2019-02-21T03:21:26.889Z,1020.87
2019-02-21T03:22:27.383Z,1020.84
2019-02-21T03:23:26.784Z,1020.86
2019-02-21T03:24:26.786Z,1020.86
2019-02-21T03:25:26.764Z,1020.84
2019-02-21T03:26:26.892Z,1020.84
2019-02-21T03:27:26.738Z,1020.87
2019-02-21T03:28:26.726Z,1020.84
2019-02-21T03:29:26.740Z,1020.87
2019-02-21T03:30:26.725Z,1020.85
2019-02-21T03:31:26.707Z,1020.89
2019-02-21T03:32:26.685Z,1020.89
2019-02-21T03:33:26.684Z,1020.80
2019-02-21T03:34:27.405Z,1020.84
2019-02-21T03:35:26.658Z,1020.90
2019-02-21T03:36:26.709Z,1020.86
2019-02-21T03:37:26.629Z,1020.92
2019-02-21T03:38:26.619Z,1020.81
2019-02-21T03:39:26.610Z,1020.89
2019-02-21T03:40:26.593Z,1020.91
2019-02-21T03:41:26.892Z,1020.90
2019-02-21T03:42:26.572Z,1020.92
2019-02-21T03:43:26.564Z,1020.90
2019-02-21T03:44:26.547Z,1020.87
2019-02-21T03:45:26.543Z,1020.85
2019-02-21T03:46:26.901Z,1020.90
2019-02-21T03:47:26.524Z,1020.89
2019-02-21T03:48:26.505Z,1020.91
2019-02-21T03:49:27.381Z,1020.92
2019-02-21T03:50:26.489Z,1020.82
2019-02-21T03:51:26.893Z,1020.86
2019-02-21T03:52:26.457Z,1020.84
2019-02-21T03:53:26.450Z,1020.81
2019-02-21T03:54:26.443Z,1020.73
2019-02-21T03:55:26.443Z,1020.87
2019-02-21T03:56:26.451Z,1020.83
2019-02-21T03:57:27.379Z,1020.84
2019-02-21T03:58:26.392Z,1020.70
2019-02-21T03:59:26.395Z,1020.80
2019-02-21T04:00:26.371Z,1020.78
2019-02-21T04:01:26.376Z,1020.80
2019-02-21T04:02:26.350Z,1020.79
2019-02-21T04:03:26.341Z,1020.77
2019-02-21T04:04:26.360Z,1020.72
2019-02-21T04:05:26.318Z,1020.69
2019-02-21T04:06:26.318Z,1020.73
2019-02-21T04:07:26.293Z,1020.63
2019-02-21T04:08:26.283Z,1020.71
2019-02-21T04:09:26.287Z,1020.67
2019-02-21T04:10:26.263Z,1020.67
2019-02-21T04:11:26.252Z,1020.66
2019-02-21T04:12:26.396Z,1020.67
2019-02-21T04:13:26.231Z,1020.65
2019-02-21T04:14:26.230Z,1020.66
2019-02-21T04:15:26.206Z,1020.67
2019-02-21T04:16:26.194Z,1020.65
2019-02-21T04:17:26.196Z,1020.57
2019-02-21T04:18:26.179Z,1020.62
2019-02-21T04:19:26.894Z,1020.63
2019-02-21T04:20:26.167Z,1020.68
2019-02-21T04:21:26.140Z,1020.59
2019-02-21T04:22:26.136Z,1020.62
2019-02-21T04:23:26.121Z,1020.50
2019-02-21T04:24:26.123Z,1020.56
2019-02-21T04:25:26.095Z,1020.57
2019-02-21T04:26:26.084Z,1020.65
2019-02-21T04:27:26.115Z,1020.64
2019-02-21T04:28:26.076Z,1020.60
2019-02-21T04:29:26.900Z,1020.59
2019-02-21T04:30:26.040Z,1020.58
2019-02-21T04:31:26.028Z,1020.57
2019-02-21T04:32:26.032Z,1020.66
2019-02-21T04:33:26.022Z,1020.62
2019-02-21T04:34:26.009Z,1020.51
2019-02-21T04:35:26.884Z,1020.58
2019-02-21T04:36:26.893Z,1020.56
2019-02-21T04:37:25.980Z,1020.57
2019-02-21T04:38:25.977Z,1020.52
2019-02-21T04:39:25.979Z,1020.56
2019-02-21T04:40:26.898Z,1020.55
2019-02-21T04:41:25.929Z,1020.52
2019-02-21T04:42:25.920Z,1020.50
2019-02-21T04:43:25.900Z,1020.50
2019-02-21T04:44:25.891Z,1020.43
2019-02-21T04:45:25.889Z,1020.54
2019-02-21T04:46:25.862Z,1020.46
2019-02-21T04:47:25.861Z,1020.51
2019-02-21T04:48:26.386Z,1020.52
2019-02-21T04:49:25.837Z,1020.44
2019-02-21T04:50:25.828Z,1020.53
2019-02-21T04:51:25.808Z,1020.58
2019-02-21T04:52:25.805Z,1020.55
2019-02-21T04:53:25.789Z,1020.49
2019-02-21T04:54:25.775Z,1020.60
2019-02-21T04:55:25.770Z,1020.57
2019-02-21T04:56:25.753Z,1020.58
2019-02-21T04:57:25.755Z,1020.55
2019-02-21T04:58:25.733Z,1020.48
2019-02-21T04:59:25.728Z,1020.54
2019-02-21T05:00:26.385Z,1020.49
2019-02-21T05:01:25.698Z,1020.60
2019-02-21T05:02:28.864Z,1020.53
2019-02-21T05:03:25.690Z,1020.48
2019-02-21T05:04:25.669Z,1020.55
2019-02-21T05:05:25.655Z,1020.51
2019-02-21T05:06:25.639Z,1020.51
2019-02-21T05:07:25.629Z,1020.56
2019-02-21T05:08:25.634Z,1020.51
2019-02-21T05:09:27.103Z,1020.53
2019-02-21T05:10:25.600Z,1020.48
2019-02-21T05:11:25.599Z,1020.48
2019-02-21T05:12:25.575Z,1020.52
2019-02-21T05:13:25.578Z,1020.53
2019-02-21T05:14:25.569Z,1020.54
2019-02-21T05:15:25.546Z,1020.48
2019-02-21T05:16:25.529Z,1020.60
2019-02-21T05:17:25.550Z,1020.59
2019-02-21T05:18:25.522Z,1020.52
2019-02-21T05:19:25.498Z,1020.59
2019-02-21T05:20:25.490Z,1020.59
2019-02-21T05:21:25.484Z,1020.58
2019-02-21T05:22:25.463Z,1020.60
2019-02-21T05:23:25.467Z,1020.60
2019-02-21T05:24:25.446Z,1020.60
2019-02-21T05:25:25.434Z,1020.57
2019-02-21T05:26:25.421Z,1020.63
2019-02-21T05:27:25.409Z,1020.56
2019-02-21T05:28:25.428Z,1020.57
2019-02-21T05:29:25.391Z,1020.55
2019-02-21T05:30:25.378Z,1020.53
2019-02-21T05:31:25.365Z,1020.56
2019-02-21T05:32:25.354Z,1020.58
2019-02-21T05:33:25.363Z,1020.47
2019-02-21T05:34:25.331Z,1020.47
2019-02-21T05:35:25.321Z,1020.49
2019-02-21T05:36:25.316Z,1020.47
2019-02-21T05:37:25.299Z,1020.44
2019-02-21T05:38:25.342Z,1020.43
2019-02-21T05:39:25.274Z,1020.45
2019-02-21T05:40:25.271Z,1020.47
2019-02-21T05:41:25.253Z,1020.56
2019-02-21T05:42:25.249Z,1020.53
2019-02-21T05:43:25.248Z,1020.49
2019-02-21T05:44:25.223Z,1020.47
2019-02-21T05:45:25.888Z,1020.50
2019-02-21T05:46:25.214Z,1020.51
2019-02-21T05:47:25.887Z,1020.55
2019-02-21T05:48:25.194Z,1020.54
2019-02-21T05:49:25.176Z,1020.60
2019-02-21T05:50:25.894Z,1020.60
2019-02-21T05:51:25.149Z,1020.51
2019-02-21T05:52:25.136Z,1020.56
2019-02-21T05:53:25.164Z,1020.59
2019-02-21T05:54:25.115Z,1020.54
2019-02-21T05:55:25.911Z,1020.57
2019-02-21T05:56:25.088Z,1020.54
2019-02-21T05:57:25.091Z,1020.59
2019-02-21T05:58:25.097Z,1020.56
2019-02-21T05:59:25.057Z,1020.63
2019-02-21T06:00:25.058Z,1020.60
2019-02-21T06:01:25.037Z,1020.63
2019-02-21T06:02:25.905Z,1020.63
2019-02-21T06:03:25.072Z,1020.62
2019-02-21T06:04:25.014Z,1020.68
2019-02-21T06:05:25.000Z,1020.62
2019-02-21T06:06:24.989Z,1020.68
2019-02-21T06:07:25.889Z,1020.66
2019-02-21T06:08:24.959Z,1020.60
2019-02-21T06:09:24.956Z,1020.63
2019-02-21T06:10:24.947Z,1020.58
2019-02-21T06:11:25.919Z,1020.64
2019-02-21T06:12:33.509Z,1020.68
2019-02-21T06:13:24.910Z,1020.63
2019-02-21T06:14:24.906Z,1020.56
2019-02-21T06:15:24.917Z,1020.63
2019-02-21T06:16:24.880Z,1020.63
2019-02-21T06:17:24.858Z,1020.65
2019-02-21T06:18:25.392Z,1020.67
2019-02-21T06:19:24.857Z,1020.63
2019-02-21T06:20:25.400Z,1020.72
2019-02-21T06:21:24.817Z,1020.68
2019-02-21T06:22:24.818Z,1020.72
2019-02-21T06:23:25.390Z,1020.73
2019-02-21T06:24:24.908Z,1020.75
2019-02-21T06:25:24.783Z,1020.77
2019-02-21T06:26:24.787Z,1020.78
2019-02-21T06:27:24.748Z,1020.80
2019-02-21T06:28:24.746Z,1020.79
2019-02-21T06:29:24.955Z,1020.73
2019-02-21T06:30:24.743Z,1020.83
2019-02-21T06:31:24.709Z,1020.80
2019-02-21T06:32:24.695Z,1020.79
2019-02-21T06:33:25.389Z,1020.81
2019-02-21T06:34:24.693Z,1020.84
2019-02-21T06:35:24.674Z,1020.86
2019-02-21T06:36:26.282Z,1020.86
2019-02-21T06:37:25.393Z,1020.87
2019-02-21T06:38:24.642Z,1020.88
2019-02-21T06:39:25.207Z,1020.85
2019-02-21T06:40:24.621Z,1020.86
2019-02-21T06:41:25.388Z,1020.88
2019-02-21T06:42:25.408Z,1020.82
2019-02-21T06:43:24.572Z,1020.90
2019-02-21T06:44:24.580Z,1020.90
2019-02-21T06:45:24.586Z,1020.91
2019-02-21T06:46:25.394Z,1021.00
2019-02-21T06:47:25.395Z,1020.94
2019-02-21T06:48:24.517Z,1021.00
2019-02-21T06:49:32.117Z,1020.98
2019-02-21T06:50:27.074Z,1020.95
2019-02-21T06:51:24.496Z,1020.95
2019-02-21T06:52:24.477Z,1020.91
2019-02-21T06:53:24.465Z,1020.95
2019-02-21T06:54:24.467Z,1020.90
2019-02-21T06:55:24.449Z,1020.94
2019-02-21T06:56:24.440Z,1020.90
2019-02-21T06:57:24.422Z,1020.91
2019-02-21T06:58:24.411Z,1020.94
2019-02-21T06:59:24.419Z,1020.96
2019-02-21T07:00:24.403Z,1020.93
2019-02-21T07:01:29.158Z,1020.92
2019-02-21T07:02:24.366Z,1020.83
2019-02-21T07:03:24.356Z,1020.94
2019-02-21T07:04:24.398Z,1020.94
2019-02-21T07:05:24.333Z,1020.91
2019-02-21T07:06:32.114Z,1020.98
2019-02-21T07:07:24.356Z,1020.99
2019-02-21T07:08:25.188Z,1020.99
2019-02-21T07:09:24.892Z,1020.99
2019-02-21T07:10:24.409Z,1021.01
2019-02-21T07:11:25.424Z,1020.93
2019-02-21T07:12:24.269Z,1020.97
2019-02-21T07:13:26.848Z,1020.97
2019-02-21T07:14:24.247Z,1020.97
2019-02-21T07:15:24.408Z,1020.96
2019-02-21T07:16:24.932Z,1020.99
2019-02-21T07:17:24.215Z,1020.97
2019-02-21T07:18:24.202Z,1020.94
2019-02-21T07:19:24.181Z,1020.97
2019-02-21T07:20:24.186Z,1020.99
2019-02-21T07:21:24.169Z,1020.98
2019-02-21T07:22:24.151Z,1021.03
2019-02-21T07:23:24.904Z,1021.04
2019-02-21T07:24:24.139Z,1021.00
2019-02-21T07:25:24.158Z,1021.05
2019-02-21T07:26:24.912Z,1021.02
2019-02-21T07:27:24.124Z,1021.06
2019-02-21T07:28:24.118Z,1021.07
2019-02-21T07:29:24.103Z,1021.15
2019-02-21T07:30:24.171Z,1021.13
2019-02-21T07:31:28.577Z,1021.20
2019-02-21T07:32:24.056Z,1021.15
2019-02-21T07:33:28.591Z,1021.17
2019-02-21T07:34:24.016Z,1021.11
2019-02-21T07:35:24.033Z,1021.12
2019-02-21T07:36:24.004Z,1021.11
2019-02-21T07:37:23.997Z,1021.09
2019-02-21T07:38:24.942Z,1021.10
2019-02-21T07:39:23.975Z,1021.02
2019-02-21T07:40:23.991Z,1021.16
2019-02-21T07:41:24.910Z,1021.12
2019-02-21T07:42:23.947Z,1021.12
2019-02-21T07:43:25.096Z,1021.13
2019-02-21T07:44:23.908Z,1021.16
2019-02-21T07:45:23.927Z,1021.14
2019-02-21T07:46:24.429Z,1021.14
2019-02-21T07:47:23.875Z,1021.14
2019-02-21T07:48:23.860Z,1021.17
2019-02-21T07:49:25.682Z,1021.17
2019-02-21T07:50:23.856Z,1021.15
2019-02-21T07:51:23.865Z,1021.24
2019-02-21T07:52:26.102Z,1021.23
2019-02-21T07:53:23.811Z,1021.26
2019-02-21T07:54:24.392Z,1021.25
2019-02-21T07:55:23.830Z,1021.41
2019-02-21T07:56:23.835Z,1021.43
2019-02-21T07:57:23.789Z,1021.43
2019-02-21T07:58:23.782Z,1021.40
2019-02-21T07:59:23.750Z,1021.35
2019-02-21T08:00:23.736Z,1021.43
2019-02-21T08:01:23.759Z,1021.45
2019-02-21T08:02:24.422Z,1021.42
2019-02-21T08:03:31.889Z,1021.45
2019-02-21T08:04:23.706Z,1021.41
2019-02-21T08:05:23.855Z,1021.42
2019-02-21T08:06:23.921Z,1021.42
2019-02-21T08:07:26.266Z,1021.48
2019-02-21T08:08:23.675Z,1021.53
2019-02-21T08:09:23.656Z,1021.43
2019-02-21T08:10:33.159Z,1021.45
2019-02-21T08:11:23.627Z,1021.48
2019-02-21T08:12:23.597Z,1021.51
2019-02-21T08:13:23.602Z,1021.52
2019-02-21T08:14:23.587Z,1021.52
2019-02-21T08:15:23.570Z,1021.55
2019-02-21T08:16:23.569Z,1021.57
2019-02-21T08:17:23.545Z,1021.63
2019-02-21T08:18:24.406Z,1021.55
2019-02-21T08:19:23.525Z,1021.59
2019-02-21T08:20:33.515Z,1021.64
2019-02-21T08:21:23.545Z,1021.58
2019-02-21T08:22:23.485Z,1021.64
2019-02-21T08:23:24.397Z,1021.59
2019-02-21T08:24:23.465Z,1021.63
2019-02-21T08:25:23.465Z,1021.67
2019-02-21T08:26:23.468Z,1021.70
2019-02-21T08:27:23.428Z,1021.69
2019-02-21T08:28:23.422Z,1021.69
2019-02-21T08:29:23.453Z,1021.68
2019-02-21T08:30:23.413Z,1021.67
2019-02-21T08:31:23.421Z,1021.63
2019-02-21T08:32:23.393Z,1021.69
2019-02-21T08:33:23.364Z,1021.70
2019-02-21T08:34:23.353Z,1021.65
2019-02-21T08:35:23.339Z,1021.62
2019-02-21T08:36:23.360Z,1021.62
2019-02-21T08:37:23.339Z,1021.67
2019-02-21T08:38:23.311Z,1021.67
2019-02-21T08:39:23.905Z,1021.72
2019-02-21T08:40:25.075Z,1021.73
2019-02-21T08:41:25.656Z,1021.72
2019-02-21T08:42:23.261Z,1021.64
2019-02-21T08:43:23.249Z,1021.70
2019-02-21T08:44:23.240Z,1021.65
2019-02-21T08:45:23.907Z,1021.74
2019-02-21T08:46:23.910Z,1021.81
2019-02-21T08:47:23.211Z,1021.71
2019-02-21T08:48:23.194Z,1021.67
2019-02-21T08:49:23.180Z,1021.71
2019-02-21T08:50:23.172Z,1021.75
2019-02-21T08:51:23.163Z,1021.74
2019-02-21T08:52:23.430Z,1021.78
2019-02-21T08:53:23.168Z,1021.76
2019-02-21T08:54:23.135Z,1021.79
2019-02-21T08:55:23.115Z,1021.84
2019-02-21T08:56:23.896Z,1021.72
2019-02-21T08:57:23.424Z,1021.77
2019-02-21T08:58:23.907Z,1021.68
2019-02-21T08:59:23.908Z,1021.69
2019-02-21T09:00:23.063Z,1021.70
2019-02-21T09:01:23.051Z,1021.65
2019-02-21T09:02:44.414Z,1021.76
2019-02-21T09:03:23.053Z,1021.72
2019-02-21T09:04:27.595Z,1021.76
2019-02-21T09:05:23.036Z,1021.88
2019-02-21T09:06:24.768Z,1021.88
2019-02-21T09:07:22.997Z,1021.91
2019-02-21T09:08:33.111Z,1021.90
2019-02-21T09:09:22.969Z,1021.86
2019-02-21T09:10:22.967Z,1021.82
2019-02-21T09:11:23.920Z,1021.92
2019-02-21T09:12:23.424Z,1021.88
2019-02-21T09:13:23.883Z,1021.93
2019-02-21T09:14:22.938Z,1021.92
2019-02-21T09:15:22.914Z,1021.97
2019-02-21T09:16:22.883Z,1021.96
2019-02-21T09:17:22.903Z,1021.94
2019-02-21T09:18:22.860Z,1021.99
2019-02-21T09:19:23.404Z,1021.99
2019-02-21T09:20:22.853Z,1021.90
2019-02-21T09:21:22.828Z,1021.88
2019-02-21T09:22:22.851Z,1021.83
2019-02-21T09:23:22.803Z,1021.83
2019-02-21T09:24:37.780Z,1021.86
2019-02-21T09:25:22.782Z,1021.92
2019-02-21T09:26:22.786Z,1021.95
2019-02-21T09:27:22.794Z,1021.92
2019-02-21T09:28:22.763Z,1021.91
2019-02-21T09:29:22.737Z,1021.92
2019-02-21T09:30:22.727Z,1021.98
2019-02-21T09:31:22.718Z,1022.01
2019-02-21T09:32:22.721Z,1021.93
2019-02-21T09:33:22.694Z,1021.96
2019-02-21T09:34:22.686Z,1021.96
2019-02-21T09:35:22.678Z,1021.97
2019-02-21T09:36:22.657Z,1021.92
2019-02-21T09:37:22.669Z,1021.99
2019-02-21T09:38:22.638Z,1021.92
2019-02-21T09:39:22.626Z,1021.99
2019-02-21T09:40:22.615Z,1021.94
2019-02-21T09:41:22.600Z,1021.96
2019-02-21T09:42:22.771Z,1022.02
2019-02-21T09:43:23.400Z,1021.97
2019-02-21T09:44:22.579Z,1022.02
2019-02-21T09:45:23.418Z,1022.05
2019-02-21T09:46:23.409Z,1021.95
2019-02-21T09:47:22.941Z,1021.95
2019-02-21T09:48:23.408Z,1021.98
2019-02-21T09:49:23.402Z,1021.99
2019-02-21T09:50:22.600Z,1022.01
2019-02-21T09:51:22.500Z,1022.04
2019-02-21T09:52:23.412Z,1022.02
2019-02-21T09:53:22.478Z,1022.07
2019-02-21T09:54:22.459Z,1022.03
2019-02-21T09:55:22.447Z,1022.10
2019-02-21T09:56:29.829Z,1022.10
2019-02-21T09:57:22.437Z,1022.16
2019-02-21T09:58:22.921Z,1022.16
2019-02-21T09:59:22.402Z,1022.20
2019-02-21T10:00:22.472Z,1022.22
2019-02-21T10:01:22.383Z,1022.26
2019-02-21T10:02:23.194Z,1022.26
2019-02-21T10:03:22.370Z,1022.26
2019-02-21T10:04:31.898Z,1022.34
2019-02-21T10:05:22.358Z,1022.40
2019-02-21T10:06:22.906Z,1022.39
2019-02-21T10:07:22.334Z,1022.42
2019-02-21T10:08:22.330Z,1022.47
2019-02-21T10:09:22.303Z,1022.54
2019-02-21T10:10:22.285Z,1022.53
2019-02-21T10:11:22.907Z,1022.51
2019-02-21T10:12:22.276Z,1022.48
2019-02-21T10:13:22.295Z,1022.47
2019-02-21T10:14:22.247Z,1022.39
2019-02-21T10:15:22.226Z,1022.45
2019-02-21T10:16:22.247Z,1022.43
2019-02-21T10:17:22.247Z,1022.49
2019-02-21T10:18:22.209Z,1022.44
2019-02-21T10:19:22.188Z,1022.40
2019-02-21T10:20:22.173Z,1022.44
2019-02-21T10:21:22.168Z,1022.44
2019-02-21T10:22:22.168Z,1022.46
2019-02-21T10:23:24.279Z,1022.43
2019-02-21T10:24:22.902Z,1022.43
2019-02-21T10:25:23.243Z,1022.50
2019-02-21T10:26:22.111Z,1022.49
2019-02-21T10:27:22.097Z,1022.48
2019-02-21T10:28:22.417Z,1022.44
2019-02-21T10:29:22.087Z,1022.44
2019-02-21T10:30:22.915Z,1022.43
2019-02-21T10:31:22.061Z,1022.35
2019-02-21T10:32:22.906Z,1022.36
2019-02-21T10:33:22.055Z,1022.45
2019-02-21T10:34:22.045Z,1022.43
2019-02-21T10:35:22.014Z,1022.37
2019-02-21T10:36:21.997Z,1022.37
2019-02-21T10:37:22.903Z,1022.37
2019-02-21T10:38:21.975Z,1022.32
2019-02-21T10:39:21.974Z,1022.33
2019-02-21T10:40:21.958Z,1022.33
2019-02-21T10:41:21.942Z,1022.26
2019-02-21T10:42:21.934Z,1022.28
2019-02-21T10:43:22.918Z,1022.24
2019-02-21T10:44:22.422Z,1022.24
2019-02-21T10:45:21.917Z,1022.22
2019-02-21T10:46:21.887Z,1022.27
2019-02-21T10:47:22.424Z,1022.22
2019-02-21T10:48:22.404Z,1022.25
2019-02-21T10:49:21.869Z,1022.21
2019-02-21T10:50:21.886Z,1022.28
2019-02-21T10:51:21.837Z,1022.19
2019-02-21T10:52:22.401Z,1022.27
2019-02-21T10:53:21.821Z,1022.22
2019-02-21T10:54:21.920Z,1022.23
2019-02-21T10:55:22.410Z,1022.28
2019-02-21T10:56:21.777Z,1022.33
2019-02-21T10:57:21.780Z,1022.28
2019-02-21T10:58:21.799Z,1022.28
2019-02-21T10:59:21.783Z,1022.34
2019-02-21T11:00:22.403Z,1022.28
2019-02-21T11:01:22.412Z,1022.29
2019-02-21T11:02:21.708Z,1022.22
2019-02-21T11:03:22.411Z,1022.30
2019-02-21T11:04:21.715Z,1022.20
2019-02-21T11:05:21.676Z,1022.31
2019-02-21T11:06:21.668Z,1022.30
2019-02-21T11:07:21.661Z,1022.30
2019-02-21T11:08:21.681Z,1022.30
2019-02-21T11:09:22.426Z,1022.22
2019-02-21T11:10:21.667Z,1022.26
2019-02-21T11:11:21.613Z,1022.25
2019-02-21T11:12:21.602Z,1022.20
2019-02-21T11:13:21.619Z,1022.20
2019-02-21T11:14:21.592Z,1022.20
2019-02-21T11:15:21.578Z,1022.20
2019-02-21T11:16:21.588Z,1022.14
2019-02-21T11:17:21.551Z,1022.10
2019-02-21T11:18:21.548Z,1022.10
2019-02-21T11:19:21.538Z,1022.10
2019-02-21T11:20:21.520Z,1022.07
2019-02-21T11:21:21.505Z,1022.06
2019-02-21T11:22:22.407Z,1022.09
2019-02-21T11:23:22.407Z,1022.03
2019-02-21T11:24:21.959Z,1022.03
2019-02-21T11:25:21.472Z,1022.05
2019-02-21T11:26:21.452Z,1022.01
2019-02-21T11:27:21.438Z,1022.03
2019-02-21T11:28:21.441Z,1022.02
2019-02-21T11:29:21.921Z,1022.05
2019-02-21T11:30:21.412Z,1022.05
2019-02-21T11:31:21.422Z,1022.03
2019-02-21T11:32:21.387Z,1022.04
2019-02-21T11:33:21.409Z,1022.19
2019-02-21T11:34:21.384Z,1022.18
2019-02-21T11:35:21.364Z,1022.18
2019-02-21T11:36:21.905Z,1022.22
2019-02-21T11:37:21.328Z,1022.23
2019-02-21T11:38:21.400Z,1022.22
2019-02-21T11:39:21.938Z,1022.15
2019-02-21T11:40:21.302Z,1022.15
2019-02-21T11:41:21.304Z,1022.16
2019-02-21T11:42:21.924Z,1022.13
2019-02-21T11:43:21.284Z,1022.09
2019-02-21T11:44:21.248Z,1022.08
2019-02-21T11:45:21.435Z,1022.15
2019-02-21T11:46:21.917Z,1022.20
2019-02-21T11:47:21.219Z,1022.16
2019-02-21T11:48:21.216Z,1022.19
2019-02-21T11:49:21.200Z,1022.17
2019-02-21T11:50:21.451Z,1022.16
2019-02-21T11:51:21.178Z,1022.13
2019-02-21T11:52:21.165Z,1022.14
2019-02-21T11:53:21.158Z,1022.18
2019-02-21T11:54:26.949Z,1022.16
2019-02-21T11:55:21.134Z,1022.22
2019-02-21T11:56:21.115Z,1022.14
2019-02-21T11:57:21.102Z,1022.19
2019-02-21T11:58:21.106Z,1022.18
2019-02-21T11:59:21.922Z,1022.17
2019-02-21T12:00:21.116Z,1022.19
2019-02-21T12:01:21.056Z,1022.19
2019-02-21T12:02:21.910Z,1022.17
2019-02-21T12:03:21.426Z,1022.19
2019-02-21T12:04:21.025Z,1022.21
2019-02-21T12:05:30.601Z,1022.17